sensor_id;sensor_type;location;lat;lon;timestamp;P1;durP1;ratioP1;P2;durP2;ratioP2
11344;SDS011;5727;42.600;23.028;2022-12-18T00:02:02;6.70;;;5.73;;
11344;SDS011;5727;42.600;23.028;2022-12-18T00:04:29;5.70;;;5.27;;
11344;SDS011;5727;42.600;23.028;2022-12-18T00:06:57;6.53;;;5.87;;
11344;SDS011;5727;42.600;23.028;2022-12-18T00:09:23;5.47;;;5.03;;
11344;SDS011;5727;42.600;23.028;2022-12-18T00:11:50;5.50;;;5.10;;
11344;SDS011;5727;42.600;23.028;2022-12-18T00:14:17;5.60;;;5.13;;
11344;SDS011;5727;42.600;23.028;2022-12-18T00:16:44;5.70;;;5.07;;
11344;SDS011;5727;42.600;23.028;2022-12-18T00:19:12;6.23;;;5.63;;
11344;SDS011;5727;42.600;23.028;2022-12-18T00:21:39;5.87;;;5.37;;
11344;SDS011;5727;42.600;23.028;2022-12-18T00:24:08;6.60;;;5.97;;
11344;SDS011;5727;42.600;23.028;2022-12-18T00:26:36;5.50;;;5.10;;
11344;SDS011;5727;42.600;23.028;2022-12-18T00:29:05;5.73;;;5.23;;
11344;SDS011;5727;42.600;23.028;2022-12-18T00:31:33;6.30;;;5.70;;
11344;SDS011;5727;42.600;23.028;2022-12-18T00:34:00;6.30;;;5.80;;
11344;SDS011;5727;42.600;23.028;2022-12-18T00:36:27;6.37;;;5.77;;
11344;SDS011;5727;42.600;23.028;2022-12-18T00:38:56;6.17;;;5.57;;
11344;SDS011;5727;42.600;23.028;2022-12-18T00:41:25;6.47;;;5.87;;
11344;SDS011;5727;42.600;23.028;2022-12-18T00:44:10;6.50;;;5.90;;
11344;SDS011;5727;42.600;23.028;2022-12-18T00:46:38;6.43;;;5.83;;
11344;SDS011;5727;42.600;23.028;2022-12-18T00:49:05;6.37;;;5.77;;
11344;SDS011;5727;42.600;23.028;2022-12-18T00:51:32;7.50;;;6.77;;
11344;SDS011;5727;42.600;23.028;2022-12-18T00:53:59;7.27;;;6.60;;
11344;SDS011;5727;42.600;23.028;2022-12-18T00:56:27;7.97;;;7.17;;
11344;SDS011;5727;42.600;23.028;2022-12-18T00:58:54;8.07;;;7.13;;
11344;SDS011;5727;42.600;23.028;2022-12-18T01:01:20;8.30;;;7.40;;
11344;SDS011;5727;42.600;23.028;2022-12-18T01:03:47;8.00;;;6.87;;
11344;SDS011;5727;42.600;23.028;2022-12-18T01:06:14;10.77;;;7.63;;
11344;SDS011;5727;42.600;23.028;2022-12-18T01:08:42;8.10;;;7.30;;
11344;SDS011;5727;42.600;23.028;2022-12-18T01:11:09;8.17;;;7.37;;
11344;SDS011;5727;42.600;23.028;2022-12-18T01:13:39;7.67;;;6.97;;
11344;SDS011;5727;42.600;23.028;2022-12-18T01:16:06;7.73;;;6.93;;
11344;SDS011;5727;42.600;23.028;2022-12-18T01:18:34;7.30;;;6.67;;
11344;SDS011;5727;42.600;23.028;2022-12-18T01:21:02;7.17;;;6.57;;
11344;SDS011;5727;42.600;23.028;2022-12-18T01:23:32;5.53;;;5.13;;
11344;SDS011;5727;42.600;23.028;2022-12-18T01:26:03;5.60;;;5.20;;
11344;SDS011;5727;42.600;23.028;2022-12-18T01:28:30;6.70;;;6.10;;
11344;SDS011;5727;42.600;23.028;2022-12-18T01:30:58;6.30;;;5.70;;
11344;SDS011;5727;42.600;23.028;2022-12-18T01:33:35;6.77;;;6.17;;
11344;SDS011;5727;42.600;23.028;2022-12-18T01:36:02;6.27;;;5.77;;
11344;SDS011;5727;42.600;23.028;2022-12-18T01:38:29;6.20;;;5.60;;
11344;SDS011;5727;42.600;23.028;2022-12-18T01:40:56;7.63;;;6.13;;
11344;SDS011;5727;42.600;23.028;2022-12-18T01:46:10;7.20;;;6.53;;
11344;SDS011;5727;42.600;23.028;2022-12-18T01:48:38;8.30;;;7.50;;
11344;SDS011;5727;42.600;23.028;2022-12-18T01:51:06;6.97;;;6.27;;
11344;SDS011;5727;42.600;23.028;2022-12-18T01:53:36;7.63;;;6.83;;
11344;SDS011;5727;42.600;23.028;2022-12-18T01:56:03;7.20;;;6.50;;
11344;SDS011;5727;42.600;23.028;2022-12-18T01:58:32;8.17;;;7.40;;
11344;SDS011;5727;42.600;23.028;2022-12-18T02:01:05;7.77;;;7.07;;
11344;SDS011;5727;42.600;23.028;2022-12-18T02:03:33;7.77;;;6.97;;
11344;SDS011;5727;42.600;23.028;2022-12-18T02:06:01;7.30;;;6.70;;
11344;SDS011;5727;42.600;23.028;2022-12-18T02:08:37;7.37;;;6.67;;
11344;SDS011;5727;42.600;23.028;2022-12-18T02:11:15;8.50;;;7.60;;
11344;SDS011;5727;42.600;23.028;2022-12-18T02:13:50;7.17;;;6.47;;
11344;SDS011;5727;42.600;23.028;2022-12-18T02:16:25;6.77;;;6.17;;
11344;SDS011;5727;42.600;23.028;2022-12-18T02:19:03;6.63;;;6.03;;
11344;SDS011;5727;42.600;23.028;2022-12-18T02:21:45;7.40;;;6.73;;
11344;SDS011;5727;42.600;23.028;2022-12-18T02:24:24;7.63;;;6.93;;
11344;SDS011;5727;42.600;23.028;2022-12-18T02:26:58;8.20;;;7.40;;
11344;SDS011;5727;42.600;23.028;2022-12-18T02:29:29;7.30;;;6.70;;
11344;SDS011;5727;42.600;23.028;2022-12-18T02:31:59;7.53;;;6.83;;
11344;SDS011;5727;42.600;23.028;2022-12-18T02:34:27;7.57;;;6.53;;
11344;SDS011;5727;42.600;23.028;2022-12-18T02:36:57;6.93;;;6.33;;
11344;SDS011;5727;42.600;23.028;2022-12-18T02:39:27;7.10;;;6.50;;
11344;SDS011;5727;42.600;23.028;2022-12-18T02:41:58;6.73;;;6.13;;
11344;SDS011;5727;42.600;23.028;2022-12-18T02:44:27;7.40;;;6.63;;
11344;SDS011;5727;42.600;23.028;2022-12-18T02:46:54;7.00;;;6.40;;
11344;SDS011;5727;42.600;23.028;2022-12-18T02:49:23;6.53;;;5.93;;
11344;SDS011;5727;42.600;23.028;2022-12-18T02:52:00;7.30;;;6.60;;
11344;SDS011;5727;42.600;23.028;2022-12-18T02:57:24;6.33;;;5.77;;
11344;SDS011;5727;42.600;23.028;2022-12-18T03:00:02;7.70;;;6.53;;
11344;SDS011;5727;42.600;23.028;2022-12-18T03:02:34;5.30;;;4.90;;
11344;SDS011;5727;42.600;23.028;2022-12-18T03:05:07;6.40;;;5.80;;
11344;SDS011;5727;42.600;23.028;2022-12-18T03:07:41;6.53;;;5.90;;
11344;SDS011;5727;42.600;23.028;2022-12-18T03:10:13;5.70;;;5.20;;
11344;SDS011;5727;42.600;23.028;2022-12-18T03:12:46;7.30;;;6.03;;
11344;SDS011;5727;42.600;23.028;2022-12-18T03:15:18;6.17;;;5.57;;
11344;SDS011;5727;42.600;23.028;2022-12-18T03:17:50;7.07;;;6.40;;
11344;SDS011;5727;42.600;23.028;2022-12-18T03:20:21;5.80;;;5.20;;
11344;SDS011;5727;42.600;23.028;2022-12-18T03:22:53;6.50;;;5.70;;
11344;SDS011;5727;42.600;23.028;2022-12-18T03:25:25;6.87;;;6.17;;
11344;SDS011;5727;42.600;23.028;2022-12-18T03:27:56;6.27;;;5.73;;
11344;SDS011;5727;42.600;23.028;2022-12-18T03:30:27;7.33;;;6.53;;
11344;SDS011;5727;42.600;23.028;2022-12-18T03:33:00;6.37;;;5.87;;
11344;SDS011;5727;42.600;23.028;2022-12-18T03:35:33;6.53;;;5.93;;
11344;SDS011;5727;42.600;23.028;2022-12-18T03:38:03;7.10;;;6.50;;
11344;SDS011;5727;42.600;23.028;2022-12-18T03:40:31;8.00;;;7.20;;
11344;SDS011;5727;42.600;23.028;2022-12-18T03:43:08;7.97;;;7.27;;
11344;SDS011;5727;42.600;23.028;2022-12-18T03:45:42;7.83;;;7.03;;
11344;SDS011;5727;42.600;23.028;2022-12-18T03:48:17;8.87;;;7.77;;
11344;SDS011;5727;42.600;23.028;2022-12-18T03:50:52;8.97;;;8.10;;
11344;SDS011;5727;42.600;23.028;2022-12-18T03:53:25;7.33;;;6.63;;
11344;SDS011;5727;42.600;23.028;2022-12-18T03:55:59;9.33;;;7.40;;
11344;SDS011;5727;42.600;23.028;2022-12-18T03:58:29;8.83;;;7.57;;
11344;SDS011;5727;42.600;23.028;2022-12-18T04:01:00;7.93;;;7.23;;
11344;SDS011;5727;42.600;23.028;2022-12-18T04:03:30;8.47;;;7.67;;
11344;SDS011;5727;42.600;23.028;2022-12-18T04:05:58;9.07;;;8.10;;
11344;SDS011;5727;42.600;23.028;2022-12-18T04:08:27;8.43;;;7.53;;
11344;SDS011;5727;42.600;23.028;2022-12-18T04:10:54;11.23;;;8.73;;
11344;SDS011;5727;42.600;23.028;2022-12-18T04:13:21;8.80;;;7.90;;
11344;SDS011;5727;42.600;23.028;2022-12-18T04:15:50;8.53;;;7.63;;
11344;SDS011;5727;42.600;23.028;2022-12-18T04:18:17;8.50;;;7.60;;
11344;SDS011;5727;42.600;23.028;2022-12-18T04:20:44;8.20;;;7.40;;
11344;SDS011;5727;42.600;23.028;2022-12-18T04:23:11;8.37;;;7.13;;
11344;SDS011;5727;42.600;23.028;2022-12-18T04:25:38;8.43;;;7.50;;
11344;SDS011;5727;42.600;23.028;2022-12-18T04:28:04;9.23;;;8.27;;
11344;SDS011;5727;42.600;23.028;2022-12-18T04:30:31;8.03;;;7.23;;
11344;SDS011;5727;42.600;23.028;2022-12-18T04:32:59;8.37;;;7.40;;
11344;SDS011;5727;42.600;23.028;2022-12-18T04:35:26;8.37;;;7.40;;
11344;SDS011;5727;42.600;23.028;2022-12-18T04:37:53;8.47;;;7.67;;
11344;SDS011;5727;42.600;23.028;2022-12-18T04:40:19;9.60;;;8.60;;
11344;SDS011;5727;42.600;23.028;2022-12-18T04:42:46;9.37;;;8.37;;
11344;SDS011;5727;42.600;23.028;2022-12-18T04:45:13;8.87;;;7.90;;
11344;SDS011;5727;42.600;23.028;2022-12-18T04:47:39;8.97;;;8.07;;
11344;SDS011;5727;42.600;23.028;2022-12-18T04:50:08;9.37;;;8.23;;
11344;SDS011;5727;42.600;23.028;2022-12-18T04:52:35;10.07;;;8.90;;
11344;SDS011;5727;42.600;23.028;2022-12-18T04:55:02;12.93;;;9.30;;
11344;SDS011;5727;42.600;23.028;2022-12-18T04:57:29;10.03;;;8.53;;
11344;SDS011;5727;42.600;23.028;2022-12-18T04:59:56;10.67;;;9.53;;
11344;SDS011;5727;42.600;23.028;2022-12-18T05:02:22;10.77;;;8.93;;
11344;SDS011;5727;42.600;23.028;2022-12-18T05:04:49;12.70;;;10.07;;
11344;SDS011;5727;42.600;23.028;2022-12-18T05:07:17;12.53;;;9.97;;
11344;SDS011;5727;42.600;23.028;2022-12-18T05:09:44;12.43;;;9.40;;
11344;SDS011;5727;42.600;23.028;2022-12-18T05:12:11;10.60;;;9.53;;
11344;SDS011;5727;42.600;23.028;2022-12-18T05:14:37;11.30;;;9.17;;
11344;SDS011;5727;42.600;23.028;2022-12-18T05:17:04;12.77;;;9.57;;
11344;SDS011;5727;42.600;23.028;2022-12-18T05:19:31;11.00;;;9.30;;
11344;SDS011;5727;42.600;23.028;2022-12-18T05:21:57;12.17;;;9.87;;
11344;SDS011;5727;42.600;23.028;2022-12-18T05:24:26;11.27;;;10.00;;
11344;SDS011;5727;42.600;23.028;2022-12-18T05:26:52;13.20;;;11.00;;
11344;SDS011;5727;42.600;23.028;2022-12-18T05:29:19;13.27;;;9.93;;
11344;SDS011;5727;42.600;23.028;2022-12-18T05:31:46;12.50;;;10.63;;
11344;SDS011;5727;42.600;23.028;2022-12-18T05:34:12;12.13;;;10.93;;
11344;SDS011;5727;42.600;23.028;2022-12-18T05:36:39;14.17;;;11.63;;
11344;SDS011;5727;42.600;23.028;2022-12-18T05:39:06;15.23;;;12.03;;
11344;SDS011;5727;42.600;23.028;2022-12-18T05:41:34;14.47;;;11.40;;
11344;SDS011;5727;42.600;23.028;2022-12-18T05:44:01;13.97;;;11.03;;
11344;SDS011;5727;42.600;23.028;2022-12-18T05:46:28;14.63;;;11.37;;
11344;SDS011;5727;42.600;23.028;2022-12-18T05:48:54;14.37;;;11.00;;
11344;SDS011;5727;42.600;23.028;2022-12-18T05:51:22;15.63;;;12.00;;
11344;SDS011;5727;42.600;23.028;2022-12-18T05:53:48;14.20;;;11.60;;
11344;SDS011;5727;42.600;23.028;2022-12-18T05:56:16;14.93;;;11.77;;
11344;SDS011;5727;42.600;23.028;2022-12-18T05:58:45;16.53;;;11.67;;
11344;SDS011;5727;42.600;23.028;2022-12-18T06:01:13;16.77;;;13.67;;
11344;SDS011;5727;42.600;23.028;2022-12-18T06:03:43;16.77;;;13.20;;
11344;SDS011;5727;42.600;23.028;2022-12-18T06:06:13;15.43;;;12.40;;
11344;SDS011;5727;42.600;23.028;2022-12-18T06:08:41;15.57;;;12.47;;
11344;SDS011;5727;42.600;23.028;2022-12-18T06:11:07;15.30;;;12.07;;
11344;SDS011;5727;42.600;23.028;2022-12-18T06:13:34;16.03;;;12.30;;
11344;SDS011;5727;42.600;23.028;2022-12-18T06:16:03;17.37;;;12.83;;
11344;SDS011;5727;42.600;23.028;2022-12-18T06:18:30;14.53;;;11.63;;
11344;SDS011;5727;42.600;23.028;2022-12-18T06:20:58;14.87;;;11.60;;
11344;SDS011;5727;42.600;23.028;2022-12-18T06:23:26;14.60;;;11.70;;
11344;SDS011;5727;42.600;23.028;2022-12-18T06:25:53;14.13;;;10.30;;
11344;SDS011;5727;42.600;23.028;2022-12-18T06:28:20;16.17;;;12.20;;
11344;SDS011;5727;42.600;23.028;2022-12-18T06:30:47;15.87;;;11.47;;
11344;SDS011;5727;42.600;23.028;2022-12-18T06:33:15;14.27;;;11.03;;
11344;SDS011;5727;42.600;23.028;2022-12-18T06:35:43;14.07;;;11.33;;
11344;SDS011;5727;42.600;23.028;2022-12-18T06:38:09;15.90;;;11.87;;
11344;SDS011;5727;42.600;23.028;2022-12-18T06:40:36;15.63;;;12.50;;
11344;SDS011;5727;42.600;23.028;2022-12-18T06:43:03;17.60;;;12.40;;
11344;SDS011;5727;42.600;23.028;2022-12-18T06:45:30;15.20;;;11.73;;
11344;SDS011;5727;42.600;23.028;2022-12-18T06:47:57;16.33;;;11.40;;
11344;SDS011;5727;42.600;23.028;2022-12-18T06:50:25;15.03;;;11.70;;
11344;SDS011;5727;42.600;23.028;2022-12-18T06:52:51;16.23;;;11.70;;
11344;SDS011;5727;42.600;23.028;2022-12-18T06:55:18;15.43;;;11.60;;
11344;SDS011;5727;42.600;23.028;2022-12-18T06:57:45;15.53;;;12.33;;
11344;SDS011;5727;42.600;23.028;2022-12-18T07:00:12;16.40;;;12.43;;
11344;SDS011;5727;42.600;23.028;2022-12-18T07:02:39;12.77;;;11.03;;
11344;SDS011;5727;42.600;23.028;2022-12-18T07:05:06;15.57;;;11.47;;
11344;SDS011;5727;42.600;23.028;2022-12-18T07:07:35;14.90;;;12.47;;
11344;SDS011;5727;42.600;23.028;2022-12-18T07:10:01;13.77;;;10.80;;
11344;SDS011;5727;42.600;23.028;2022-12-18T07:12:28;15.10;;;11.97;;
11344;SDS011;5727;42.600;23.028;2022-12-18T07:14:55;16.43;;;12.30;;
11344;SDS011;5727;42.600;23.028;2022-12-18T07:17:22;15.47;;;12.33;;
11344;SDS011;5727;42.600;23.028;2022-12-18T07:19:49;14.97;;;11.33;;
11344;SDS011;5727;42.600;23.028;2022-12-18T07:22:15;14.47;;;12.23;;
11344;SDS011;5727;42.600;23.028;2022-12-18T07:24:43;13.50;;;10.83;;
11344;SDS011;5727;42.600;23.028;2022-12-18T07:27:12;16.90;;;11.53;;
11344;SDS011;5727;42.600;23.028;2022-12-18T07:29:39;13.83;;;11.00;;
11344;SDS011;5727;42.600;23.028;2022-12-18T07:32:06;14.03;;;11.13;;
11344;SDS011;5727;42.600;23.028;2022-12-18T07:34:33;13.63;;;10.47;;
11344;SDS011;5727;42.600;23.028;2022-12-18T07:37:00;14.90;;;10.67;;
11344;SDS011;5727;42.600;23.028;2022-12-18T07:39:27;14.30;;;10.80;;
11344;SDS011;5727;42.600;23.028;2022-12-18T07:41:55;14.60;;;11.40;;
11344;SDS011;5727;42.600;23.028;2022-12-18T07:44:38;14.50;;;11.20;;
11344;SDS011;5727;42.600;23.028;2022-12-18T07:47:05;15.27;;;11.87;;
11344;SDS011;5727;42.600;23.028;2022-12-18T07:49:31;17.77;;;12.23;;
11344;SDS011;5727;42.600;23.028;2022-12-18T07:51:58;16.13;;;11.93;;
11344;SDS011;5727;42.600;23.028;2022-12-18T07:54:26;16.47;;;12.17;;
11344;SDS011;5727;42.600;23.028;2022-12-18T07:56:54;16.13;;;12.60;;
11344;SDS011;5727;42.600;23.028;2022-12-18T07:59:21;16.73;;;12.20;;
11344;SDS011;5727;42.600;23.028;2022-12-18T08:01:48;14.43;;;10.90;;
11344;SDS011;5727;42.600;23.028;2022-12-18T08:04:15;14.67;;;12.23;;
11344;SDS011;5727;42.600;23.028;2022-12-18T08:06:41;13.57;;;10.63;;
11344;SDS011;5727;42.600;23.028;2022-12-18T08:09:09;14.97;;;11.93;;
11344;SDS011;5727;42.600;23.028;2022-12-18T08:11:36;15.80;;;12.40;;
11344;SDS011;5727;42.600;23.028;2022-12-18T08:14:04;17.53;;;13.03;;
11344;SDS011;5727;42.600;23.028;2022-12-18T08:16:31;16.63;;;12.70;;
11344;SDS011;5727;42.600;23.028;2022-12-18T08:18:57;16.83;;;13.13;;
11344;SDS011;5727;42.600;23.028;2022-12-18T08:21:25;17.03;;;11.93;;
11344;SDS011;5727;42.600;23.028;2022-12-18T08:23:53;14.00;;;11.30;;
11344;SDS011;5727;42.600;23.028;2022-12-18T08:26:21;13.47;;;10.67;;
11344;SDS011;5727;42.600;23.028;2022-12-18T08:28:49;11.90;;;9.63;;
11344;SDS011;5727;42.600;23.028;2022-12-18T08:31:18;16.90;;;12.00;;
11344;SDS011;5727;42.600;23.028;2022-12-18T08:33:45;17.47;;;12.00;;
11344;SDS011;5727;42.600;23.028;2022-12-18T08:36:14;15.17;;;11.37;;
11344;SDS011;5727;42.600;23.028;2022-12-18T08:38:40;15.83;;;11.83;;
11344;SDS011;5727;42.600;23.028;2022-12-18T08:41:08;15.73;;;12.23;;
11344;SDS011;5727;42.600;23.028;2022-12-18T08:43:37;17.00;;;13.07;;
11344;SDS011;5727;42.600;23.028;2022-12-18T08:46:24;18.73;;;14.07;;
11344;SDS011;5727;42.600;23.028;2022-12-18T08:48:52;17.63;;;13.10;;
11344;SDS011;5727;42.600;23.028;2022-12-18T08:51:20;16.40;;;13.27;;
11344;SDS011;5727;42.600;23.028;2022-12-18T08:53:49;19.67;;;13.70;;
11344;SDS011;5727;42.600;23.028;2022-12-18T08:56:16;19.83;;;14.40;;
11344;SDS011;5727;42.600;23.028;2022-12-18T08:58:43;18.73;;;13.63;;
11344;SDS011;5727;42.600;23.028;2022-12-18T09:01:10;20.70;;;13.63;;
11344;SDS011;5727;42.600;23.028;2022-12-18T09:03:40;20.67;;;14.70;;
11344;SDS011;5727;42.600;23.028;2022-12-18T09:06:06;17.77;;;14.33;;
11344;SDS011;5727;42.600;23.028;2022-12-18T09:08:35;17.13;;;13.03;;
11344;SDS011;5727;42.600;23.028;2022-12-18T09:11:02;16.97;;;13.30;;
11344;SDS011;5727;42.600;23.028;2022-12-18T09:13:29;20.13;;;14.53;;
11344;SDS011;5727;42.600;23.028;2022-12-18T09:15:56;21.73;;;15.40;;
11344;SDS011;5727;42.600;23.028;2022-12-18T09:18:23;20.97;;;14.53;;
11344;SDS011;5727;42.600;23.028;2022-12-18T09:20:51;18.43;;;14.57;;
11344;SDS011;5727;42.600;23.028;2022-12-18T09:23:18;19.33;;;15.03;;
11344;SDS011;5727;42.600;23.028;2022-12-18T09:25:45;21.17;;;14.07;;
11344;SDS011;5727;42.600;23.028;2022-12-18T09:28:12;21.67;;;14.33;;
11344;SDS011;5727;42.600;23.028;2022-12-18T09:30:41;22.53;;;15.47;;
11344;SDS011;5727;42.600;23.028;2022-12-18T09:33:09;18.47;;;15.07;;
11344;SDS011;5727;42.600;23.028;2022-12-18T09:35:36;20.63;;;15.13;;
11344;SDS011;5727;42.600;23.028;2022-12-18T09:38:08;19.90;;;14.83;;
11344;SDS011;5727;42.600;23.028;2022-12-18T09:40:40;21.00;;;16.07;;
11344;SDS011;5727;42.600;23.028;2022-12-18T09:43:09;17.20;;;13.50;;
11344;SDS011;5727;42.600;23.028;2022-12-18T09:45:43;17.57;;;12.53;;
11344;SDS011;5727;42.600;23.028;2022-12-18T09:48:15;21.53;;;14.97;;
11344;SDS011;5727;42.600;23.028;2022-12-18T09:50:45;21.40;;;14.83;;
11344;SDS011;5727;42.600;23.028;2022-12-18T09:53:15;16.97;;;13.83;;
11344;SDS011;5727;42.600;23.028;2022-12-18T09:55:47;15.67;;;12.40;;
11344;SDS011;5727;42.600;23.028;2022-12-18T09:58:15;15.47;;;11.90;;
11344;SDS011;5727;42.600;23.028;2022-12-18T10:00:48;19.33;;;13.50;;
11344;SDS011;5727;42.600;23.028;2022-12-18T10:03:17;19.33;;;13.27;;
11344;SDS011;5727;42.600;23.028;2022-12-18T10:05:46;16.10;;;12.23;;
11344;SDS011;5727;42.600;23.028;2022-12-18T10:08:24;20.17;;;13.97;;
11344;SDS011;5727;42.600;23.028;2022-12-18T10:11:01;17.60;;;13.53;;
11344;SDS011;5727;42.600;23.028;2022-12-18T10:13:39;17.10;;;13.13;;
11344;SDS011;5727;42.600;23.028;2022-12-18T10:16:12;16.60;;;12.67;;
11344;SDS011;5727;42.600;23.028;2022-12-18T10:18:54;15.27;;;11.77;;
11344;SDS011;5727;42.600;23.028;2022-12-18T10:21:30;16.07;;;12.03;;
11344;SDS011;5727;42.600;23.028;2022-12-18T10:24:02;14.93;;;12.03;;
11344;SDS011;5727;42.600;23.028;2022-12-18T10:26:38;13.37;;;11.27;;
11344;SDS011;5727;42.600;23.028;2022-12-18T10:29:07;17.87;;;11.50;;
11344;SDS011;5727;42.600;23.028;2022-12-18T10:31:37;16.97;;;11.07;;
11344;SDS011;5727;42.600;23.028;2022-12-18T10:34:04;15.37;;;11.20;;
11344;SDS011;5727;42.600;23.028;2022-12-18T10:36:35;15.60;;;10.70;;
11344;SDS011;5727;42.600;23.028;2022-12-18T10:39:13;15.60;;;11.10;;
11344;SDS011;5727;42.600;23.028;2022-12-18T10:41:41;17.17;;;12.13;;
11344;SDS011;5727;42.600;23.028;2022-12-18T10:44:12;19.23;;;13.07;;
11344;SDS011;5727;42.600;23.028;2022-12-18T10:46:42;16.07;;;11.90;;
11344;SDS011;5727;42.600;23.028;2022-12-18T10:49:18;14.67;;;11.73;;
11344;SDS011;5727;42.600;23.028;2022-12-18T10:51:48;17.50;;;12.40;;
11344;SDS011;5727;42.600;23.028;2022-12-18T10:54:17;16.27;;;12.90;;
11344;SDS011;5727;42.600;23.028;2022-12-18T10:56:47;18.83;;;12.50;;
11344;SDS011;5727;42.600;23.028;2022-12-18T10:59:14;19.27;;;13.77;;
11344;SDS011;5727;42.600;23.028;2022-12-18T11:01:46;16.60;;;12.20;;
11344;SDS011;5727;42.600;23.028;2022-12-18T11:04:19;19.33;;;13.30;;
11344;SDS011;5727;42.600;23.028;2022-12-18T11:06:54;16.90;;;12.13;;
11344;SDS011;5727;42.600;23.028;2022-12-18T11:09:24;17.43;;;12.20;;
11344;SDS011;5727;42.600;23.028;2022-12-18T11:11:53;19.17;;;13.40;;
11344;SDS011;5727;42.600;23.028;2022-12-18T11:14:22;15.83;;;11.37;;
11344;SDS011;5727;42.600;23.028;2022-12-18T11:16:51;16.37;;;12.17;;
11344;SDS011;5727;42.600;23.028;2022-12-18T11:19:30;17.67;;;12.53;;
11344;SDS011;5727;42.600;23.028;2022-12-18T11:21:59;15.70;;;11.40;;
11344;SDS011;5727;42.600;23.028;2022-12-18T11:24:30;15.43;;;11.17;;
11344;SDS011;5727;42.600;23.028;2022-12-18T11:26:59;16.43;;;11.43;;
11344;SDS011;5727;42.600;23.028;2022-12-18T11:29:30;17.00;;;11.80;;
11344;SDS011;5727;42.600;23.028;2022-12-18T11:32:18;16.87;;;11.53;;
11344;SDS011;5727;42.600;23.028;2022-12-18T11:34:51;13.63;;;10.57;;
11344;SDS011;5727;42.600;23.028;2022-12-18T11:37:24;13.27;;;10.53;;
11344;SDS011;5727;42.600;23.028;2022-12-18T11:39:54;14.83;;;11.27;;
11344;SDS011;5727;42.600;23.028;2022-12-18T11:42:27;14.93;;;11.13;;
11344;SDS011;5727;42.600;23.028;2022-12-18T11:45:01;16.47;;;10.97;;
11344;SDS011;5727;42.600;23.028;2022-12-18T11:47:36;14.67;;;10.77;;
11344;SDS011;5727;42.600;23.028;2022-12-18T11:50:10;13.10;;;10.27;;
11344;SDS011;5727;42.600;23.028;2022-12-18T11:52:40;11.30;;;9.43;;
11344;SDS011;5727;42.600;23.028;2022-12-18T11:55:11;17.23;;;11.57;;
11344;SDS011;5727;42.600;23.028;2022-12-18T11:57:42;14.03;;;10.00;;
11344;SDS011;5727;42.600;23.028;2022-12-18T12:00:18;12.87;;;9.63;;
11344;SDS011;5727;42.600;23.028;2022-12-18T12:03:00;12.03;;;9.70;;
11344;SDS011;5727;42.600;23.028;2022-12-18T12:05:42;11.63;;;9.80;;
11344;SDS011;5727;42.600;23.028;2022-12-18T12:08:27;15.13;;;9.87;;
11344;SDS011;5727;42.600;23.028;2022-12-18T12:11:05;12.23;;;10.03;;
11344;SDS011;5727;42.600;23.028;2022-12-18T12:13:44;15.33;;;9.70;;
11344;SDS011;5727;42.600;23.028;2022-12-18T12:16:31;13.27;;;10.10;;
11344;SDS011;5727;42.600;23.028;2022-12-18T12:19:07;13.27;;;10.57;;
11344;SDS011;5727;42.600;23.028;2022-12-18T12:21:46;15.40;;;10.87;;
11344;SDS011;5727;42.600;23.028;2022-12-18T12:24:24;15.83;;;11.87;;
11344;SDS011;5727;42.600;23.028;2022-12-18T12:27:03;14.47;;;10.53;;
11344;SDS011;5727;42.600;23.028;2022-12-18T12:29:41;13.67;;;10.60;;
11344;SDS011;5727;42.600;23.028;2022-12-18T12:32:20;15.90;;;11.10;;
11344;SDS011;5727;42.600;23.028;2022-12-18T12:34:57;13.23;;;10.10;;
11344;SDS011;5727;42.600;23.028;2022-12-18T12:37:37;12.70;;;9.27;;
11344;SDS011;5727;42.600;23.028;2022-12-18T12:40:16;12.33;;;9.67;;
11344;SDS011;5727;42.600;23.028;2022-12-18T12:42:49;17.00;;;12.70;;
11344;SDS011;5727;42.600;23.028;2022-12-18T12:45:38;15.93;;;11.47;;
11344;SDS011;5727;42.600;23.028;2022-12-18T12:48:13;11.83;;;9.20;;
11344;SDS011;5727;42.600;23.028;2022-12-18T12:50:45;10.47;;;8.83;;
11344;SDS011;5727;42.600;23.028;2022-12-18T12:53:15;11.20;;;9.33;;
11344;SDS011;5727;42.600;23.028;2022-12-18T12:55:49;12.60;;;9.90;;
11344;SDS011;5727;42.600;23.028;2022-12-18T12:58:19;13.00;;;9.50;;
11344;SDS011;5727;42.600;23.028;2022-12-18T13:00:58;11.77;;;9.80;;
11344;SDS011;5727;42.600;23.028;2022-12-18T13:03:41;11.03;;;9.30;;
11344;SDS011;5727;42.600;23.028;2022-12-18T13:06:16;11.80;;;9.70;;
11344;SDS011;5727;42.600;23.028;2022-12-18T13:08:52;12.50;;;9.17;;
11344;SDS011;5727;42.600;23.028;2022-12-18T13:11:31;12.57;;;8.97;;
11344;SDS011;5727;42.600;23.028;2022-12-18T13:14:21;15.53;;;10.20;;
11344;SDS011;5727;42.600;23.028;2022-12-18T13:16:51;13.03;;;9.00;;
11344;SDS011;5727;42.600;23.028;2022-12-18T13:19:21;12.33;;;10.10;;
11344;SDS011;5727;42.600;23.028;2022-12-18T13:21:53;13.60;;;10.00;;
11344;SDS011;5727;42.600;23.028;2022-12-18T13:24:23;13.23;;;9.60;;
11344;SDS011;5727;42.600;23.028;2022-12-18T13:26:53;12.47;;;9.23;;
11344;SDS011;5727;42.600;23.028;2022-12-18T13:32:21;13.20;;;9.63;;
11344;SDS011;5727;42.600;23.028;2022-12-18T13:34:49;11.53;;;9.93;;
11344;SDS011;5727;42.600;23.028;2022-12-18T13:37:51;11.27;;;9.60;;
11344;SDS011;5727;42.600;23.028;2022-12-18T13:43:29;14.17;;;10.30;;
11344;SDS011;5727;42.600;23.028;2022-12-18T13:46:04;15.07;;;11.00;;
11344;SDS011;5727;42.600;23.028;2022-12-18T13:48:47;16.50;;;11.20;;
11344;SDS011;5727;42.600;23.028;2022-12-18T13:51:17;13.63;;;10.10;;
11344;SDS011;5727;42.600;23.028;2022-12-18T13:53:47;11.77;;;9.97;;
11344;SDS011;5727;42.600;23.028;2022-12-18T13:56:17;15.20;;;10.93;;
11344;SDS011;5727;42.600;23.028;2022-12-18T14:01:47;14.03;;;10.43;;
11344;SDS011;5727;42.600;23.028;2022-12-18T14:04:18;17.23;;;11.00;;
11344;SDS011;5727;42.600;23.028;2022-12-18T14:06:47;13.80;;;10.83;;
11344;SDS011;5727;42.600;23.028;2022-12-18T14:09:17;15.97;;;11.77;;
11344;SDS011;5727;42.600;23.028;2022-12-18T14:11:49;17.43;;;11.17;;
11344;SDS011;5727;42.600;23.028;2022-12-18T14:14:17;14.30;;;10.50;;
11344;SDS011;5727;42.600;23.028;2022-12-18T14:16:46;15.47;;;11.13;;
11344;SDS011;5727;42.600;23.028;2022-12-18T14:19:14;14.30;;;10.97;;
11344;SDS011;5727;42.600;23.028;2022-12-18T14:21:46;15.47;;;10.70;;
11344;SDS011;5727;42.600;23.028;2022-12-18T14:24:15;15.83;;;11.30;;
11344;SDS011;5727;42.600;23.028;2022-12-18T14:26:44;15.97;;;11.87;;
11344;SDS011;5727;42.600;23.028;2022-12-18T14:29:18;16.23;;;11.80;;
11344;SDS011;5727;42.600;23.028;2022-12-18T14:34:39;14.70;;;10.43;;
11344;SDS011;5727;42.600;23.028;2022-12-18T14:37:07;17.60;;;11.57;;
11344;SDS011;5727;42.600;23.028;2022-12-18T14:39:36;14.47;;;10.63;;
11344;SDS011;5727;42.600;23.028;2022-12-18T14:42:03;15.80;;;11.50;;
11344;SDS011;5727;42.600;23.028;2022-12-18T14:44:30;18.00;;;11.43;;
11344;SDS011;5727;42.600;23.028;2022-12-18T14:46:57;15.77;;;11.70;;
11344;SDS011;5727;42.600;23.028;2022-12-18T14:49:26;20.70;;;13.23;;
11344;SDS011;5727;42.600;23.028;2022-12-18T14:51:56;17.13;;;11.57;;
11344;SDS011;5727;42.600;23.028;2022-12-18T14:54:24;16.43;;;11.47;;
11344;SDS011;5727;42.600;23.028;2022-12-18T14:56:54;16.80;;;11.43;;
11344;SDS011;5727;42.600;23.028;2022-12-18T14:59:26;14.07;;;11.00;;
11344;SDS011;5727;42.600;23.028;2022-12-18T15:01:57;17.73;;;11.80;;
11344;SDS011;5727;42.600;23.028;2022-12-18T15:04:29;17.37;;;11.43;;
11344;SDS011;5727;42.600;23.028;2022-12-18T15:07:06;16.07;;;10.53;;